sensor_id;sensor_type;location;lat;lon;timestamp;P1;durP1;ratioP1;P2;durP2;ratioP2
5821;SDS011;2937;48.562;8.022;2022-08-11T00:00:48;10.50;;;3.57;;
5821;SDS011;2937;48.562;8.022;2022-08-11T00:05:44;4.80;;;3.50;;
5821;SDS011;2937;48.562;8.022;2022-08-11T00:10:38;6.63;;;4.10;;
5821;SDS011;2937;48.562;8.022;2022-08-11T00:15:37;5.00;;;3.63;;
5821;SDS011;2937;48.562;8.022;2022-08-11T00:20:31;6.87;;;4.47;;
5821;SDS011;2937;48.562;8.022;2022-08-11T00:25:24;5.07;;;3.40;;
5821;SDS011;2937;48.562;8.022;2022-08-11T00:30:17;5.53;;;3.63;;
5821;SDS011;2937;48.562;8.022;2022-08-11T00:35:11;5.50;;;3.70;;
5821;SDS011;2937;48.562;8.022;2022-08-11T00:40:27;4.50;;;3.70;;
5821;SDS011;2937;48.562;8.022;2022-08-11T00:45:25;4.60;;;3.80;;
5821;SDS011;2937;48.562;8.022;2022-08-11T00:50:21;5.10;;;3.83;;
5821;SDS011;2937;48.562;8.022;2022-08-11T00:55:30;4.50;;;3.83;;
5821;SDS011;2937;48.562;8.022;2022-08-11T01:00:31;5.97;;;4.10;;
5821;SDS011;2937;48.562;8.022;2022-08-11T01:15:52;6.00;;;3.80;;
5821;SDS011;2937;48.562;8.022;2022-08-11T01:21:00;5.00;;;3.90;;
5821;SDS011;2937;48.562;8.022;2022-08-11T01:26:17;4.40;;;3.90;;
5821;SDS011;2937;48.562;8.022;2022-08-11T01:31:23;5.30;;;4.07;;
5821;SDS011;2937;48.562;8.022;2022-08-11T01:36:36;4.80;;;4.03;;
5821;SDS011;2937;48.562;8.022;2022-08-11T01:52:55;12.93;;;4.50;;
5821;SDS011;2937;48.562;8.022;2022-08-11T01:57:52;6.40;;;4.30;;
5821;SDS011;2937;48.562;8.022;2022-08-11T02:02:49;5.10;;;4.00;;
5821;SDS011;2937;48.562;8.022;2022-08-11T02:07:52;4.43;;;3.80;;
5821;SDS011;2937;48.562;8.022;2022-08-11T02:12:48;8.60;;;4.70;;
5821;SDS011;2937;48.562;8.022;2022-08-11T02:17:47;5.40;;;4.20;;
5821;SDS011;2937;48.562;8.022;2022-08-11T02:22:49;5.57;;;4.00;;
5821;SDS011;2937;48.562;8.022;2022-08-11T02:28:04;7.77;;;4.53;;
5821;SDS011;2937;48.562;8.022;2022-08-11T02:33:07;5.40;;;3.90;;
5821;SDS011;2937;48.562;8.022;2022-08-11T02:38:20;7.07;;;4.30;;
5821;SDS011;2937;48.562;8.022;2022-08-11T02:43:23;9.20;;;4.73;;
5821;SDS011;2937;48.562;8.022;2022-08-11T02:48:23;9.27;;;5.37;;
5821;SDS011;2937;48.562;8.022;2022-08-11T02:53:53;8.87;;;5.70;;
5821;SDS011;2937;48.562;8.022;2022-08-11T02:58:52;8.00;;;5.30;;
5821;SDS011;2937;48.562;8.022;2022-08-11T03:04:02;11.30;;;6.07;;
5821;SDS011;2937;48.562;8.022;2022-08-11T03:08:59;9.47;;;5.60;;
5821;SDS011;2937;48.562;8.022;2022-08-11T03:13:58;6.90;;;5.60;;
5821;SDS011;2937;48.562;8.022;2022-08-11T03:19:13;6.10;;;5.10;;
5821;SDS011;2937;48.562;8.022;2022-08-11T03:24:07;7.77;;;5.20;;
5821;SDS011;2937;48.562;8.022;2022-08-11T03:29:05;7.53;;;5.17;;
5821;SDS011;2937;48.562;8.022;2022-08-11T03:34:00;8.83;;;5.40;;
5821;SDS011;2937;48.562;8.022;2022-08-11T03:39:00;7.97;;;5.20;;
5821;SDS011;2937;48.562;8.022;2022-08-11T03:44:02;29.37;;;5.67;;
5821;SDS011;2937;48.562;8.022;2022-08-11T03:49:02;9.80;;;5.70;;
5821;SDS011;2937;48.562;8.022;2022-08-11T03:54:02;5.70;;;4.50;;
5821;SDS011;2937;48.562;8.022;2022-08-11T03:59:03;6.03;;;4.80;;
5821;SDS011;2937;48.562;8.022;2022-08-11T04:14:48;8.50;;;5.17;;
5821;SDS011;2937;48.562;8.022;2022-08-11T04:25:22;7.50;;;5.53;;
5821;SDS011;2937;48.562;8.022;2022-08-11T04:30:18;10.23;;;6.37;;
5821;SDS011;2937;48.562;8.022;2022-08-11T04:35:29;7.93;;;6.50;;
5821;SDS011;2937;48.562;8.022;2022-08-11T04:45:36;10.20;;;6.50;;
5821;SDS011;2937;48.562;8.022;2022-08-11T04:50:36;9.97;;;6.33;;
5821;SDS011;2937;48.562;8.022;2022-08-11T04:56:08;8.80;;;6.47;;
5821;SDS011;2937;48.562;8.022;2022-08-11T05:01:26;9.80;;;6.03;;
5821;SDS011;2937;48.562;8.022;2022-08-11T05:06:52;9.20;;;6.67;;
5821;SDS011;2937;48.562;8.022;2022-08-11T05:11:51;9.77;;;5.97;;
5821;SDS011;2937;48.562;8.022;2022-08-11T05:16:54;10.93;;;6.47;;
5821;SDS011;2937;48.562;8.022;2022-08-11T05:22:06;9.20;;;6.90;;
5821;SDS011;2937;48.562;8.022;2022-08-11T05:27:17;8.70;;;5.70;;
5821;SDS011;2937;48.562;8.022;2022-08-11T05:32:32;9.10;;;5.93;;
5821;SDS011;2937;48.562;8.022;2022-08-11T05:37:44;8.80;;;6.20;;
5821;SDS011;2937;48.562;8.022;2022-08-11T05:42:55;10.60;;;6.53;;
5821;SDS011;2937;48.562;8.022;2022-08-11T05:48:07;7.97;;;6.10;;
5821;SDS011;2937;48.562;8.022;2022-08-11T05:53:18;10.03;;;5.80;;
5821;SDS011;2937;48.562;8.022;2022-08-11T05:58:37;8.07;;;6.53;;
5821;SDS011;2937;48.562;8.022;2022-08-11T06:03:34;9.00;;;6.10;;
5821;SDS011;2937;48.562;8.022;2022-08-11T06:08:49;10.53;;;6.03;;
5821;SDS011;2937;48.562;8.022;2022-08-11T06:13:44;9.37;;;5.70;;
5821;SDS011;2937;48.562;8.022;2022-08-11T06:18:39;17.93;;;6.60;;
5821;SDS011;2937;48.562;8.022;2022-08-11T06:23:36;6.93;;;5.80;;
5821;SDS011;2937;48.562;8.022;2022-08-11T06:28:31;7.47;;;5.27;;
5821;SDS011;2937;48.562;8.022;2022-08-11T06:33:28;10.40;;;6.03;;
5821;SDS011;2937;48.562;8.022;2022-08-11T06:38:26;10.57;;;6.20;;
5821;SDS011;2937;48.562;8.022;2022-08-11T06:43:20;14.13;;;6.00;;
5821;SDS011;2937;48.562;8.022;2022-08-11T06:48:15;11.83;;;5.90;;
5821;SDS011;2937;48.562;8.022;2022-08-11T06:53:08;23.90;;;5.73;;
5821;SDS011;2937;48.562;8.022;2022-08-11T06:58:03;8.60;;;5.80;;
5821;SDS011;2937;48.562;8.022;2022-08-11T07:03:15;15.50;;;5.73;;
5821;SDS011;2937;48.562;8.022;2022-08-11T07:13:38;7.40;;;5.43;;
5821;SDS011;2937;48.562;8.022;2022-08-11T07:18:49;8.07;;;5.67;;
5821;SDS011;2937;48.562;8.022;2022-08-11T07:24:00;8.97;;;5.50;;
5821;SDS011;2937;48.562;8.022;2022-08-11T07:29:26;9.30;;;5.10;;
5821;SDS011;2937;48.562;8.022;2022-08-11T07:34:21;11.47;;;5.53;;
5821;SDS011;2937;48.562;8.022;2022-08-11T07:39:18;8.27;;;5.50;;
5821;SDS011;2937;48.562;8.022;2022-08-11T07:44:12;6.87;;;4.80;;
5821;SDS011;2937;48.562;8.022;2022-08-11T07:49:08;6.30;;;4.87;;
5821;SDS011;2937;48.562;8.022;2022-08-11T07:54:19;8.87;;;4.47;;
5821;SDS011;2937;48.562;8.022;2022-08-11T07:59:16;8.90;;;4.30;;
5821;SDS011;2937;48.562;8.022;2022-08-11T08:04:48;8.57;;;4.80;;
5821;SDS011;2937;48.562;8.022;2022-08-11T08:09:58;7.30;;;4.77;;
5821;SDS011;2937;48.562;8.022;2022-08-11T08:15:08;8.03;;;4.20;;
5821;SDS011;2937;48.562;8.022;2022-08-11T08:20:20;9.30;;;4.30;;
5821;SDS011;2937;48.562;8.022;2022-08-11T08:25:14;10.37;;;4.20;;
5821;SDS011;2937;48.562;8.022;2022-08-11T08:30:08;6.50;;;3.93;;
5821;SDS011;2937;48.562;8.022;2022-08-11T08:35:20;6.17;;;3.63;;
5821;SDS011;2937;48.562;8.022;2022-08-11T08:40:14;6.30;;;3.40;;
5821;SDS011;2937;48.562;8.022;2022-08-11T08:45:07;5.07;;;3.10;;
5821;SDS011;2937;48.562;8.022;2022-08-11T08:50:01;4.00;;;3.43;;
5821;SDS011;2937;48.562;8.022;2022-08-11T08:54:57;4.57;;;3.20;;
5821;SDS011;2937;48.562;8.022;2022-08-11T08:59:53;3.50;;;2.80;;
5821;SDS011;2937;48.562;8.022;2022-08-11T09:04:46;4.00;;;3.03;;
5821;SDS011;2937;48.562;8.022;2022-08-11T09:09:40;4.67;;;3.20;;
5821;SDS011;2937;48.562;8.022;2022-08-11T09:14:35;6.50;;;3.40;;
5821;SDS011;2937;48.562;8.022;2022-08-11T09:19:45;7.20;;;3.67;;
5821;SDS011;2937;48.562;8.022;2022-08-11T09:24:48;5.43;;;3.13;;
5821;SDS011;2937;48.562;8.022;2022-08-11T09:30:00;9.27;;;3.77;;
5821;SDS011;2937;48.562;8.022;2022-08-11T09:34:53;3.93;;;3.30;;
5821;SDS011;2937;48.562;8.022;2022-08-11T09:39:45;5.70;;;3.03;;
5821;SDS011;2937;48.562;8.022;2022-08-11T09:44:55;6.50;;;3.30;;
5821;SDS011;2937;48.562;8.022;2022-08-11T09:49:54;4.33;;;3.10;;
5821;SDS011;2937;48.562;8.022;2022-08-11T09:54:50;5.60;;;3.00;;
5821;SDS011;2937;48.562;8.022;2022-08-11T09:59:43;3.97;;;2.80;;
5821;SDS011;2937;48.562;8.022;2022-08-11T10:04:37;4.30;;;3.50;;
5821;SDS011;2937;48.562;8.022;2022-08-11T10:09:39;8.10;;;3.83;;
5821;SDS011;2937;48.562;8.022;2022-08-11T10:14:32;4.07;;;2.97;;
5821;SDS011;2937;48.562;8.022;2022-08-11T10:19:44;8.33;;;2.97;;
5821;SDS011;2937;48.562;8.022;2022-08-11T10:24:57;4.53;;;3.00;;
5821;SDS011;2937;48.562;8.022;2022-08-11T10:30:10;4.70;;;3.10;;
5821;SDS011;2937;48.562;8.022;2022-08-11T10:35:20;3.50;;;2.83;;
5821;SDS011;2937;48.562;8.022;2022-08-11T10:40:18;4.20;;;3.30;;
5821;SDS011;2937;48.562;8.022;2022-08-11T10:45:12;4.40;;;3.03;;
5821;SDS011;2937;48.562;8.022;2022-08-11T10:50:19;4.83;;;2.90;;
5821;SDS011;2937;48.562;8.022;2022-08-11T10:55:31;4.10;;;3.00;;
5821;SDS011;2937;48.562;8.022;2022-08-11T11:00:42;4.50;;;3.00;;
5821;SDS011;2937;48.562;8.022;2022-08-11T11:05:36;4.60;;;3.10;;
5821;SDS011;2937;48.562;8.022;2022-08-11T11:10:51;3.60;;;3.10;;
5821;SDS011;2937;48.562;8.022;2022-08-11T11:15:44;5.93;;;2.90;;
5821;SDS011;2937;48.562;8.022;2022-08-11T11:20:56;3.67;;;2.80;;
5821;SDS011;2937;48.562;8.022;2022-08-11T11:31:23;3.90;;;3.07;;
5821;SDS011;2937;48.562;8.022;2022-08-11T11:36:21;4.70;;;3.07;;
5821;SDS011;2937;48.562;8.022;2022-08-11T11:41:16;4.10;;;3.00;;
5821;SDS011;2937;48.562;8.022;2022-08-11T11:46:18;4.13;;;3.33;;
5821;SDS011;2937;48.562;8.022;2022-08-11T11:51:12;4.00;;;3.10;;
5821;SDS011;2937;48.562;8.022;2022-08-11T11:56:05;3.70;;;2.97;;
5821;SDS011;2937;48.562;8.022;2022-08-11T12:00:57;4.07;;;3.00;;
5821;SDS011;2937;48.562;8.022;2022-08-11T12:06:11;7.13;;;3.17;;
5821;SDS011;2937;48.562;8.022;2022-08-11T12:11:05;5.20;;;2.90;;
5821;SDS011;2937;48.562;8.022;2022-08-11T12:16:16;4.80;;;3.10;;
5821;SDS011;2937;48.562;8.022;2022-08-11T12:21:27;4.93;;;3.03;;
5821;SDS011;2937;48.562;8.022;2022-08-11T12:26:20;5.20;;;2.77;;
5821;SDS011;2937;48.562;8.022;2022-08-11T12:31:31;3.57;;;2.77;;
5821;SDS011;2937;48.562;8.022;2022-08-11T12:36:24;8.33;;;3.47;;
5821;SDS011;2937;48.562;8.022;2022-08-11T12:41:18;3.60;;;3.00;;
5821;SDS011;2937;48.562;8.022;2022-08-11T12:46:31;4.10;;;3.10;;
5821;SDS011;2937;48.562;8.022;2022-08-11T12:51:24;3.67;;;3.13;;
5821;SDS011;2937;48.562;8.022;2022-08-11T12:56:59;3.93;;;3.30;;
5821;SDS011;2937;48.562;8.022;2022-08-11T13:02:28;7.90;;;2.83;;
5821;SDS011;2937;48.562;8.022;2022-08-11T13:07:39;9.60;;;3.77;;
5821;SDS011;2937;48.562;8.022;2022-08-11T13:12:42;3.90;;;3.20;;
5821;SDS011;2937;48.562;8.022;2022-08-11T13:17:41;4.50;;;2.87;;
5821;SDS011;2937;48.562;8.022;2022-08-11T13:22:34;4.00;;;2.77;;
5821;SDS011;2937;48.562;8.022;2022-08-11T13:27:28;4.30;;;3.00;;
5821;SDS011;2937;48.562;8.022;2022-08-11T13:32:22;4.90;;;3.20;;
5821;SDS011;2937;48.562;8.022;2022-08-11T13:37:16;3.50;;;2.90;;
5821;SDS011;2937;48.562;8.022;2022-08-11T13:42:31;5.63;;;3.00;;
5821;SDS011;2937;48.562;8.022;2022-08-11T13:47:25;5.20;;;3.10;;
5821;SDS011;2937;48.562;8.022;2022-08-11T13:52:18;4.80;;;2.90;;
5821;SDS011;2937;48.562;8.022;2022-08-11T13:57:13;6.03;;;3.17;;
5821;SDS011;2937;48.562;8.022;2022-08-11T14:02:30;4.30;;;3.00;;
5821;SDS011;2937;48.562;8.022;2022-08-11T14:07:23;5.17;;;3.23;;
5821;SDS011;2937;48.562;8.022;2022-08-11T14:12:21;4.20;;;3.03;;
5821;SDS011;2937;48.562;8.022;2022-08-11T14:17:33;4.80;;;3.07;;
5821;SDS011;2937;48.562;8.022;2022-08-11T14:22:39;5.10;;;3.20;;
5821;SDS011;2937;48.562;8.022;2022-08-11T14:27:32;3.77;;;3.03;;
5821;SDS011;2937;48.562;8.022;2022-08-11T14:32:46;4.10;;;2.80;;
5821;SDS011;2937;48.562;8.022;2022-08-11T14:37:46;3.50;;;2.87;;
5821;SDS011;2937;48.562;8.022;2022-08-11T14:42:39;5.13;;;3.23;;
5821;SDS011;2937;48.562;8.022;2022-08-11T14:47:51;7.30;;;3.07;;
5821;SDS011;2937;48.562;8.022;2022-08-11T14:52:46;5.73;;;2.97;;
5821;SDS011;2937;48.562;8.022;2022-08-11T14:57:40;4.73;;;3.00;;
5821;SDS011;2937;48.562;8.022;2022-08-11T15:02:54;4.03;;;3.10;;
5821;SDS011;2937;48.562;8.022;2022-08-11T15:08:04;3.70;;;2.93;;
5821;SDS011;2937;48.562;8.022;2022-08-11T15:12:57;4.23;;;2.83;;
5821;SDS011;2937;48.562;8.022;2022-08-11T15:17:50;4.20;;;3.40;;
5821;SDS011;2937;48.562;8.022;2022-08-11T15:22:45;5.40;;;3.30;;
5821;SDS011;2937;48.562;8.022;2022-08-11T15:27:54;3.87;;;3.00;;
5821;SDS011;2937;48.562;8.022;2022-08-11T15:33:06;4.50;;;3.00;;
5821;SDS011;2937;48.562;8.022;2022-08-11T15:38:17;3.77;;;3.23;;
5821;SDS011;2937;48.562;8.022;2022-08-11T15:43:13;4.63;;;3.43;;
5821;SDS011;2937;48.562;8.022;2022-08-11T15:48:27;4.67;;;3.10;;
5821;SDS011;2937;48.562;8.022;2022-08-11T15:53:24;7.00;;;3.13;;
5821;SDS011;2937;48.562;8.022;2022-08-11T15:58:18;5.30;;;3.40;;
5821;SDS011;2937;48.562;8.022;2022-08-11T16:03:29;9.60;;;3.00;;
5821;SDS011;2937;48.562;8.022;2022-08-11T16:09:00;3.53;;;3.23;;
5821;SDS011;2937;48.562;8.022;2022-08-11T16:14:08;3.70;;;3.20;;
5821;SDS011;2937;48.562;8.022;2022-08-11T16:19:20;5.30;;;3.23;;
5821;SDS011;2937;48.562;8.022;2022-08-11T16:24:14;11.40;;;3.30;;
5821;SDS011;2937;48.562;8.022;2022-08-11T16:29:28;6.13;;;3.20;;
5821;SDS011;2937;48.562;8.022;2022-08-11T16:34:22;4.77;;;3.33;;
5821;SDS011;2937;48.562;8.022;2022-08-11T16:39:30;5.27;;;2.90;;
5821;SDS011;2937;48.562;8.022;2022-08-11T16:44:23;3.63;;;3.00;;
5821;SDS011;2937;48.562;8.022;2022-08-11T16:49:34;4.50;;;3.03;;
5821;SDS011;2937;48.562;8.022;2022-08-11T16:54:28;4.10;;;3.07;;
5821;SDS011;2937;48.562;8.022;2022-08-11T16:59:23;4.97;;;3.33;;
5821;SDS011;2937;48.562;8.022;2022-08-11T17:04:26;3.50;;;3.10;;
5821;SDS011;2937;48.562;8.022;2022-08-11T17:09:37;7.60;;;3.43;;
5821;SDS011;2937;48.562;8.022;2022-08-11T17:14:49;3.87;;;3.30;;
5821;SDS011;2937;48.562;8.022;2022-08-11T17:19:43;6.43;;;3.50;;
5821;SDS011;2937;48.562;8.022;2022-08-11T17:24:58;9.90;;;3.33;;
5821;SDS011;2937;48.562;8.022;2022-08-11T17:29:53;4.40;;;3.53;;
5821;SDS011;2937;48.562;8.022;2022-08-11T17:34:47;6.37;;;3.33;;
5821;SDS011;2937;48.562;8.022;2022-08-11T17:39:59;4.23;;;3.33;;
5821;SDS011;2937;48.562;8.022;2022-08-11T17:44:53;9.40;;;3.53;;
5821;SDS011;2937;48.562;8.022;2022-08-11T17:50:04;4.90;;;3.50;;
5821;SDS011;2937;48.562;8.022;2022-08-11T17:55:08;4.40;;;3.37;;
5821;SDS011;2937;48.562;8.022;2022-08-11T18:00:39;9.03;;;3.47;;
5821;SDS011;2937;48.562;8.022;2022-08-11T18:05:33;4.27;;;3.40;;
5821;SDS011;2937;48.562;8.022;2022-08-11T18:10:27;7.60;;;3.50;;
5821;SDS011;2937;48.562;8.022;2022-08-11T18:15:40;4.90;;;3.53;;
5821;SDS011;2937;48.562;8.022;2022-08-11T18:20:51;4.77;;;3.60;;
5821;SDS011;2937;48.562;8.022;2022-08-11T18:26:02;4.30;;;3.43;;
5821;SDS011;2937;48.562;8.022;2022-08-11T18:31:14;5.40;;;3.57;;
5821;SDS011;2937;48.562;8.022;2022-08-11T18:36:26;4.47;;;3.67;;
5821;SDS011;2937;48.562;8.022;2022-08-11T18:41:38;6.53;;;3.70;;
5821;SDS011;2937;48.562;8.022;2022-08-11T18:46:51;6.90;;;3.47;;
5821;SDS011;2937;48.562;8.022;2022-08-11T18:52:02;5.03;;;3.50;;
5821;SDS011;2937;48.562;8.022;2022-08-11T18:57:12;7.57;;;3.60;;
5821;SDS011;2937;48.562;8.022;2022-08-11T19:02:28;6.00;;;3.63;;
5821;SDS011;2937;48.562;8.022;2022-08-11T19:07:40;7.33;;;3.50;;
5821;SDS011;2937;48.562;8.022;2022-08-11T19:12:52;5.20;;;3.77;;
5821;SDS011;2937;48.562;8.022;2022-08-11T19:18:04;4.50;;;3.60;;
5821;SDS011;2937;48.562;8.022;2022-08-11T19:23:15;4.30;;;3.50;;
5821;SDS011;2937;48.562;8.022;2022-08-11T19:28:26;7.47;;;3.67;;
5821;SDS011;2937;48.562;8.022;2022-08-11T19:33:38;6.50;;;3.90;;
5821;SDS011;2937;48.562;8.022;2022-08-11T19:39:00;4.37;;;3.70;;
5821;SDS011;2937;48.562;8.022;2022-08-11T19:44:11;6.43;;;4.23;;
5821;SDS011;2937;48.562;8.022;2022-08-11T19:49:24;9.60;;;4.00;;
5821;SDS011;2937;48.562;8.022;2022-08-11T19:54:34;5.10;;;3.80;;
5821;SDS011;2937;48.562;8.022;2022-08-11T19:59:45;6.23;;;3.97;;
5821;SDS011;2937;48.562;8.022;2022-08-11T20:04:57;7.30;;;3.93;;
5821;SDS011;2937;48.562;8.022;2022-08-11T20:10:07;6.00;;;3.83;;
5821;SDS011;2937;48.562;8.022;2022-08-11T20:15:18;6.03;;;4.03;;
5821;SDS011;2937;48.562;8.022;2022-08-11T20:20:30;6.90;;;4.20;;
5821;SDS011;2937;48.562;8.022;2022-08-11T20:25:40;6.67;;;4.30;;
5821;SDS011;2937;48.562;8.022;2022-08-11T20:31:11;4.50;;;3.73;;
5821;SDS011;2937;48.562;8.022;2022-08-11T20:36:23;6.80;;;4.07;;
5821;SDS011;2937;48.562;8.022;2022-08-11T20:41:33;5.00;;;4.07;;
5821;SDS011;2937;48.562;8.022;2022-08-11T20:46:49;7.77;;;4.00;;
5821;SDS011;2937;48.562;8.022;2022-08-11T20:52:05;8.30;;;4.60;;
5821;SDS011;2937;48.562;8.022;2022-08-11T20:57:16;7.20;;;4.30;;
5821;SDS011;2937;48.562;8.022;2022-08-11T21:02:46;6.00;;;4.50;;
5821;SDS011;2937;48.562;8.022;2022-08-11T21:07:58;7.73;;;4.90;;
5821;SDS011;2937;48.562;8.022;2022-08-11T21:13:15;7.20;;;4.63;;
5821;SDS011;2937;48.562;8.022;2022-08-11T21:18:27;7.57;;;5.13;;
5821;SDS011;2937;48.562;8.022;2022-08-11T21:23:40;6.10;;;4.40;;
5821;SDS011;2937;48.562;8.022;2022-08-11T21:28:51;7.87;;;4.63;;
5821;SDS011;2937;48.562;8.022;2022-08-11T21:34:01;6.80;;;4.30;;
5821;SDS011;2937;48.562;8.022;2022-08-11T21:39:16;9.17;;;4.60;;
5821;SDS011;2937;48.562;8.022;2022-08-11T21:44:27;8.63;;;4.67;;
5821;SDS011;2937;48.562;8.022;2022-08-11T21:49:37;10.90;;;5.20;;
5821;SDS011;2937;48.562;8.022;2022-08-11T21:54:51;6.90;;;4.50;;
5821;SDS011;2937;48.562;8.022;2022-08-11T22:00:03;6.60;;;5.40;;
5821;SDS011;2937;48.562;8.022;2022-08-11T22:05:14;6.60;;;4.80;;
5821;SDS011;2937;48.562;8.022;2022-08-11T22:10:26;8.83;;;5.27;;
5821;SDS011;2937;48.562;8.022;2022-08-11T22:15:37;9.10;;;5.13;;
5821;SDS011;2937;48.562;8.022;2022-08-11T22:20:47;5.50;;;4.60;;
5821;SDS011;2937;48.562;8.022;2022-08-11T22:25:59;7.10;;;5.00;;
5821;SDS011;2937;48.562;8.022;2022-08-11T22:31:12;8.17;;;5.03;;
5821;SDS011;2937;48.562;8.022;2022-08-11T22:36:23;6.30;;;4.93;;
5821;SDS011;2937;48.562;8.022;2022-08-11T22:41:35;6.73;;;5.00;;
5821;SDS011;2937;48.562;8.022;2022-08-11T22:46:45;7.30;;;4.70;;
5821;SDS011;2937;48.562;8.022;2022-08-11T22:51:56;7.07;;;5.00;;
5821;SDS011;2937;48.562;8.022;2022-08-11T22:57:08;8.57;;;4.93;;
5821;SDS011;2937;48.562;8.022;2022-08-11T23:02:18;7.83;;;4.97;;
5821;SDS011;2937;48.562;8.022;2022-08-11T23:07:29;6.53;;;5.00;;
5821;SDS011;2937;48.562;8.022;2022-08-11T23:12:43;6.10;;;5.13;;
5821;SDS011;2937;48.562;8.022;2022-08-11T23:17:53;12.50;;;4.97;;
5821;SDS011;2937;48.562;8.022;2022-08-11T23:23:03;9.53;;;5.87;;
5821;SDS011;2937;48.562;8.022;2022-08-11T23:28:15;5.40;;;4.30;;
5821;SDS011;2937;48.562;8.022;2022-08-11T23:33:25;5.83;;;4.47;;
5821;SDS011;2937;48.562;8.022;2022-08-11T23:38:37;7.10;;;4.90;;
5821;SDS011;2937;48.562;8.022;2022-08-11T23:43:48;5.23;;;4.17;;
5821;SDS011;2937;48.562;8.022;2022-08-11T23:49:00;5.70;;;4.33;;
5821;SDS011;2937;48.562;8.022;2022-08-11T23:54:10;5.60;;;4.40;;
5821;SDS011;2937;48.562;8.022;2022-08-11T23:59:28;7.63;;;4.83;;
